PH3636 DNSU-DNCA
Flight info
| Callsign | PH3636 |
|---|---|
| Flight time | 0h 29m |
| Altitude | 5000 |
| Route | DCT |
| Aircraft | C208/L-SDFGR/C |
Departure
| Time | 2026-04-23 17:39 |
|---|---|
| Airport | Warri Airport (DNSU) |
Arrival
| Time | 2026-04-23 18:08 |
|---|---|
| Airport | Margaret Ekpo International Airport (DNCA) |
| Time | Latitude | Longitude | Altitude | Speed | Heading |
|---|---|---|---|---|---|
| 2026-04-23 17:30 | 5.59592 | 5.81901 | 33 ft | 0 kts | 71° |
| 2026-04-23 17:33 | 5.59592 | 5.81903 | 33 ft | 1 kts | 92° |
| 2026-04-23 17:33 | 5.59585 | 5.81909 | 33 ft | 2 kts | 170° |
| 2026-04-23 17:33 | 5.59575 | 5.81896 | 33 ft | 4 kts | 276° |
| 2026-04-23 17:34 | 5.59588 | 5.81864 | 34 ft | 6 kts | 278° |
| 2026-04-23 17:34 | 5.59591 | 5.81815 | 33 ft | 8 kts | 286° |
| 2026-04-23 17:34 | 5.59709 | 5.81757 | 32 ft | 13 kts | 34° |
| 2026-04-23 17:35 | 5.59770 | 5.81832 | 31 ft | 15 kts | 52° |
| 2026-04-23 17:35 | 5.59906 | 5.82011 | 32 ft | 17 kts | 53° |
| 2026-04-23 17:35 | 5.59978 | 5.82107 | 32 ft | 18 kts | 53° |
| 2026-04-23 17:36 | 5.60051 | 5.82203 | 33 ft | 17 kts | 52° |
| 2026-04-23 17:36 | 5.60111 | 5.82281 | 34 ft | 6 kts | 21° |
| 2026-04-23 17:36 | 5.60090 | 5.82237 | 34 ft | 22 kts | 232° |
| 2026-04-23 17:36 | 5.59833 | 5.81905 | 43 ft | 89 kts | 232° |
| 2026-04-23 17:37 | 5.59386 | 5.81347 | 156 ft | 114 kts | 230° |
| 2026-04-23 17:37 | 5.58868 | 5.80665 | 251 ft | 132 kts | 233° |
| 2026-04-23 17:37 | 5.57646 | 5.79080 | 443 ft | 150 kts | 217° |
| 2026-04-23 17:38 | 5.56644 | 5.78809 | 549 ft | 151 kts | 185° |
| 2026-04-23 17:38 | 5.55611 | 5.78969 | 629 ft | 156 kts | 152° |
| 2026-04-23 17:38 | 5.55008 | 5.79869 | 714 ft | 163 kts | 104° |
| 2026-04-23 17:38 | 5.54886 | 5.80992 | 810 ft | 165 kts | 91° |
| 2026-04-23 17:39 | 5.54980 | 5.82142 | 901 ft | 166 kts | 87° |
| 2026-04-23 17:39 | 5.55098 | 5.83288 | 986 ft | 164 kts | 88° |
| 2026-04-23 17:39 | 5.55228 | 5.84421 | 1087 ft | 164 kts | 86° |
| 2026-04-23 17:39 | 5.55358 | 5.85556 | 1177 ft | 163 kts | 87° |
| 2026-04-23 17:40 | 5.55485 | 5.86687 | 1282 ft | 164 kts | 87° |
| 2026-04-23 17:40 | 5.55618 | 5.87826 | 1377 ft | 164 kts | 86° |
| 2026-04-23 17:40 | 5.55747 | 5.88968 | 1477 ft | 165 kts | 87° |
| 2026-04-23 17:40 | 5.55875 | 5.90115 | 1574 ft | 165 kts | 87° |
| 2026-04-23 17:41 | 5.56004 | 5.91239 | 1670 ft | 165 kts | 87° |
| 2026-04-23 17:41 | 5.56265 | 5.93552 | 1857 ft | 167 kts | 87° |
| 2026-04-23 17:41 | 5.56387 | 5.94711 | 1957 ft | 166 kts | 88° |
| 2026-04-23 17:42 | 5.56775 | 5.96998 | 2165 ft | 166 kts | 100° |
| 2026-04-23 17:42 | 5.56550 | 5.98119 | 2261 ft | 165 kts | 108° |
| 2026-04-23 17:42 | 5.56267 | 5.99238 | 2363 ft | 166 kts | 109° |
| 2026-04-23 17:43 | 5.55989 | 6.00368 | 2451 ft | 166 kts | 108° |
| 2026-04-23 17:43 | 5.55715 | 6.01494 | 2552 ft | 166 kts | 108° |
| 2026-04-23 17:43 | 5.55443 | 6.02621 | 2646 ft | 166 kts | 108° |
| 2026-04-23 17:43 | 5.55172 | 6.03745 | 2743 ft | 166 kts | 109° |
| 2026-04-23 17:44 | 5.54897 | 6.04870 | 2837 ft | 166 kts | 109° |
| 2026-04-23 17:44 | 5.54624 | 6.05996 | 2936 ft | 166 kts | 108° |
| 2026-04-23 17:44 | 5.54081 | 6.08244 | 3131 ft | 165 kts | 108° |
| 2026-04-23 17:45 | 5.53808 | 6.09368 | 3226 ft | 166 kts | 108° |
| 2026-04-23 17:45 | 5.53267 | 6.11603 | 3416 ft | 165 kts | 108° |
| 2026-04-23 17:45 | 5.52994 | 6.12727 | 3514 ft | 166 kts | 108° |
| 2026-04-23 17:46 | 5.51226 | 6.20013 | 4140 ft | 163 kts | 107° |
| 2026-04-23 17:46 | 5.50161 | 6.24400 | 4529 ft | 163 kts | 108° |
| 2026-04-23 17:46 | 5.49080 | 6.28854 | 4825 ft | 168 kts | 106° |
| 2026-04-23 17:47 | 5.47947 | 6.33519 | 4824 ft | 173 kts | 107° |
| 2026-04-23 17:47 | 5.46804 | 6.38230 | 4829 ft | 174 kts | 105° |
| 2026-04-23 17:47 | 5.44513 | 6.47656 | 4832 ft | 174 kts | 106° |
| 2026-04-23 17:48 | 5.43366 | 6.52367 | 4839 ft | 174 kts | 105° |
| 2026-04-23 17:48 | 5.42225 | 6.57056 | 4834 ft | 174 kts | 105° |
| 2026-04-23 17:48 | 5.41078 | 6.61769 | 4835 ft | 173 kts | 105° |
| 2026-04-23 17:48 | 5.39928 | 6.66495 | 4837 ft | 174 kts | 105° |
| 2026-04-23 17:49 | 5.38786 | 6.71182 | 4835 ft | 175 kts | 105° |
| 2026-04-23 17:49 | 5.37638 | 6.75896 | 4840 ft | 174 kts | 106° |
| 2026-04-23 17:49 | 5.37195 | 6.77709 | 4839 ft | 174 kts | 106° |
| 2026-04-23 17:49 | 5.36909 | 6.78894 | 4837 ft | 175 kts | 107° |
| 2026-04-23 17:50 | 5.36621 | 6.80072 | 4838 ft | 174 kts | 108° |
| 2026-04-23 17:50 | 5.36048 | 6.82419 | 4834 ft | 173 kts | 104° |
| 2026-04-23 17:50 | 5.35762 | 6.83592 | 4836 ft | 173 kts | 106° |
| 2026-04-23 17:51 | 5.35477 | 6.84764 | 4841 ft | 172 kts | 106° |
| 2026-04-23 17:51 | 5.35192 | 6.85935 | 4845 ft | 172 kts | 107° |
| 2026-04-23 17:51 | 5.34625 | 6.88258 | 4840 ft | 173 kts | 107° |
| 2026-04-23 17:52 | 5.34337 | 6.89435 | 4839 ft | 173 kts | 105° |
| 2026-04-23 17:52 | 5.33860 | 6.91388 | 4838 ft | 173 kts | 107° |
| 2026-04-23 17:52 | 5.30666 | 7.04505 | 4818 ft | 173 kts | 107° |
| 2026-04-23 17:53 | 5.21522 | 7.41918 | 4833 ft | 172 kts | 107° |
| 2026-04-23 17:53 | 5.17106 | 7.59899 | 4834 ft | 173 kts | 106° |
| 2026-04-23 17:53 | 5.11072 | 7.84527 | 4841 ft | 172 kts | 108° |
| 2026-04-23 17:54 | 5.07958 | 7.97193 | 4832 ft | 173 kts | 107° |
| 2026-04-23 17:54 | 5.03554 | 8.15108 | 4834 ft | 173 kts | 107° |
| 2026-04-23 17:54 | 5.02952 | 8.17509 | 4834 ft | 172 kts | 107° |
| 2026-04-23 17:55 | 5.02383 | 8.19821 | 4839 ft | 172 kts | 106° |
| 2026-04-23 17:55 | 5.02099 | 8.20984 | 4837 ft | 172 kts | 105° |
| 2026-04-23 17:55 | 5.01811 | 8.22149 | 4841 ft | 171 kts | 108° |
| 2026-04-23 17:56 | 5.01531 | 8.23287 | 4744 ft | 163 kts | 107° |
| 2026-04-23 17:56 | 5.01014 | 8.25388 | 4505 ft | 150 kts | 108° |
| 2026-04-23 17:56 | 5.00768 | 8.26379 | 4382 ft | 147 kts | 107° |
| 2026-04-23 17:57 | 5.00526 | 8.27365 | 4255 ft | 144 kts | 107° |
| 2026-04-23 17:57 | 5.00287 | 8.28338 | 4135 ft | 143 kts | 108° |
| 2026-04-23 17:57 | 4.99915 | 8.30312 | 3889 ft | 144 kts | 103° |
| 2026-04-23 17:58 | 4.99645 | 8.31259 | 3773 ft | 142 kts | 116° |
| 2026-04-23 17:58 | 4.99269 | 8.32180 | 3651 ft | 142 kts | 116° |
| 2026-04-23 17:58 | 4.98895 | 8.33103 | 3533 ft | 143 kts | 116° |
| 2026-04-23 17:58 | 4.98523 | 8.34026 | 3413 ft | 143 kts | 116° |
| 2026-04-23 17:59 | 4.98157 | 8.34955 | 3298 ft | 143 kts | 117° |
| 2026-04-23 17:59 | 4.97797 | 8.35891 | 3179 ft | 143 kts | 116° |
| 2026-04-23 17:59 | 4.97442 | 8.36813 | 3062 ft | 144 kts | 116° |
| 2026-04-23 17:59 | 4.97081 | 8.37747 | 2940 ft | 143 kts | 116° |
| 2026-04-23 18:00 | 4.96725 | 8.38681 | 2819 ft | 143 kts | 116° |
| 2026-04-23 18:00 | 4.96365 | 8.39614 | 2697 ft | 143 kts | 116° |
| 2026-04-23 18:00 | 4.96007 | 8.40548 | 2577 ft | 143 kts | 116° |
| 2026-04-23 18:00 | 4.95422 | 8.41279 | 2467 ft | 135 kts | 160° |
| 2026-04-23 18:01 | 4.94532 | 8.41236 | 2364 ft | 132 kts | 208° |
| 2026-04-23 18:01 | 4.93854 | 8.40612 | 2252 ft | 133 kts | 224° |
| 2026-04-23 18:01 | 4.93211 | 8.39950 | 2129 ft | 132 kts | 224° |
| 2026-04-23 18:01 | 4.92774 | 8.39155 | 2015 ft | 138 kts | 263° |
| 2026-04-23 18:02 | 4.93159 | 8.38282 | 1908 ft | 148 kts | 316° |
| 2026-04-23 18:02 | 4.94111 | 8.37867 | 1797 ft | 151 kts | 341° |
| 2026-04-23 18:02 | 4.95120 | 8.37567 | 1675 ft | 151 kts | 341° |
| 2026-04-23 18:02 | 4.96138 | 8.37273 | 1555 ft | 153 kts | 342° |
| 2026-04-23 18:03 | 4.97180 | 8.37062 | 1436 ft | 155 kts | 5° |
| 2026-04-23 18:03 | 4.98162 | 8.37458 | 1356 ft | 151 kts | 31° |
| 2026-04-23 18:03 | 4.99068 | 8.37936 | 1343 ft | 147 kts | 29° |
| 2026-04-23 18:03 | 4.99957 | 8.38408 | 1337 ft | 142 kts | 30° |
| 2026-04-23 18:04 | 5.00825 | 8.38864 | 1331 ft | 139 kts | 29° |
| 2026-04-23 18:04 | 5.01697 | 8.39324 | 1228 ft | 144 kts | 30° |
| 2026-04-23 18:04 | 5.02595 | 8.39801 | 1112 ft | 147 kts | 30° |
| 2026-04-23 18:04 | 5.03548 | 8.40110 | 992 ft | 149 kts | 357° |
| 2026-04-23 18:05 | 5.04437 | 8.39621 | 856 ft | 147 kts | 304° |
| 2026-04-23 18:05 | 5.04604 | 8.38704 | 841 ft | 131 kts | 250° |
| 2026-04-23 18:05 | 5.04022 | 8.38099 | 842 ft | 119 kts | 210° |
| 2026-04-23 18:05 | 5.03368 | 8.37668 | 830 ft | 105 kts | 213° |
| 2026-04-23 18:06 | 5.02791 | 8.37288 | 832 ft | 93 kts | 207° |
| 2026-04-23 18:06 | 5.02218 | 8.36976 | 806 ft | 96 kts | 207° |
| 2026-04-23 18:06 | 5.01584 | 8.36705 | 714 ft | 103 kts | 202° |
| 2026-04-23 18:06 | 5.00930 | 8.36405 | 617 ft | 106 kts | 204° |
| 2026-04-23 18:07 | 5.00271 | 8.36074 | 516 ft | 108 kts | 206° |
| 2026-04-23 18:07 | 4.99610 | 8.35746 | 424 ft | 105 kts | 206° |
| 2026-04-23 18:07 | 4.98954 | 8.35416 | 307 ft | 104 kts | 207° |
| 2026-04-23 18:07 | 4.98345 | 8.35108 | 210 ft | 86 kts | 206° |
| 2026-04-23 18:08 | 4.98041 | 8.34951 | 211 ft | 48 kts | 206° |
| 2026-04-23 18:08 | 4.97789 | 8.34825 | 204 ft | 28 kts | 207° |
| 2026-04-23 18:08 | 4.97626 | 8.34742 | 205 ft | 24 kts | 207° |
| 2026-04-23 18:08 | 4.97492 | 8.34675 | 199 ft | 19 kts | 207° |
| 2026-04-23 18:09 | 4.97391 | 8.34624 | 201 ft | 13 kts | 206° |
| 2026-04-23 18:09 | 4.97288 | 8.34572 | 196 ft | 24 kts | 207° |
| 2026-04-23 18:09 | 4.97162 | 8.34508 | 205 ft | 13 kts | 202° |
| 2026-04-23 18:09 | 4.97095 | 8.34564 | 200 ft | 15 kts | 118° |
| 2026-04-23 18:10 | 4.97041 | 8.34652 | 198 ft | 13 kts | 124° |
| 2026-04-23 18:10 | 4.97025 | 8.34681 | 203 ft | 0 kts | 117° |